createdAt,value
2023-12-05T00:33:49.309Z,88.26
2023-12-05T00:36:16.323Z,88.42
2023-12-05T00:38:44.687Z,88.52
2023-12-05T00:41:12.688Z,88.41
2023-12-05T00:43:40.849Z,88.75
2023-12-05T00:46:09.007Z,88.94
2023-12-05T00:48:37.281Z,89.08
2023-12-05T00:51:05.813Z,89.06
2023-12-05T00:53:34.146Z,89.15
2023-12-05T00:56:02.159Z,89.42
2023-12-05T00:58:30.354Z,89.63
2023-12-05T01:00:58.491Z,89.73
2023-12-05T01:03:26.769Z,89.87
2023-12-05T01:05:54.970Z,89.78
2023-12-05T01:08:23.409Z,89.89
2023-12-05T01:10:52.028Z,89.84
2023-12-05T01:13:20.047Z,89.86
2023-12-05T01:15:50.402Z,89.96
2023-12-05T01:18:18.809Z,90.14
2023-12-05T01:20:47.046Z,90.26
2023-12-05T01:23:15.105Z,89.84
2023-12-05T01:25:43.418Z,89.83
2023-12-05T01:28:11.362Z,89.63
2023-12-05T01:30:39.337Z,89.56
2023-12-05T01:33:07.261Z,89.49
2023-12-05T01:35:39.297Z,89.39
2023-12-05T01:38:07.174Z,89.23
2023-12-05T01:40:35.308Z,89.10
2023-12-05T01:43:03.247Z,89.10
2023-12-05T01:45:31.493Z,88.93
2023-12-05T01:47:59.698Z,88.77
2023-12-05T01:50:30.696Z,88.79
2023-12-05T01:53:04.424Z,88.64
2023-12-05T01:55:33.311Z,88.61
2023-12-05T01:58:02.150Z,88.36
2023-12-05T02:00:30.589Z,88.46
2023-12-05T02:02:59.329Z,88.43
2023-12-05T02:05:28.159Z,88.18
2023-12-05T02:07:56.604Z,88.38
2023-12-05T02:10:24.982Z,88.29
2023-12-05T02:12:53.352Z,88.25
2023-12-05T02:15:21.792Z,88.42
2023-12-05T02:17:57.957Z,88.51
2023-12-05T02:20:35.399Z,88.68
2023-12-05T02:23:41.213Z,89.10
2023-12-05T02:26:30.055Z,89.28
2023-12-05T02:28:58.335Z,89.51
2023-12-05T02:31:26.570Z,89.74
2023-12-05T02:33:55.470Z,89.78
2023-12-05T02:36:50.358Z,90.02
2023-12-05T02:39:42.501Z,89.90
2023-12-05T02:42:13.288Z,89.88
2023-12-05T02:44:49.336Z,89.93
2023-12-05T02:47:20.975Z,90.16
2023-12-05T02:49:49.105Z,90.08
2023-12-05T02:52:17.875Z,90.20
2023-12-05T02:54:46.616Z,90.30
2023-12-05T02:57:15.021Z,90.32
2023-12-05T02:59:43.101Z,90.54
2023-12-05T03:02:12.730Z,90.79
2023-12-05T03:04:40.974Z,90.83
2023-12-05T03:07:09.035Z,90.94
2023-12-05T03:09:37.782Z,91.03
2023-12-05T03:12:05.996Z,90.99
2023-12-05T03:14:34.311Z,91.32
2023-12-05T03:17:02.628Z,91.44
2023-12-05T03:19:31.602Z,91.52
2023-12-05T03:21:59.872Z,91.37
2023-12-05T03:24:28.176Z,91.41
2023-12-05T03:26:56.506Z,91.40
2023-12-05T03:29:24.473Z,91.54
2023-12-05T03:31:52.500Z,91.66
2023-12-05T03:34:20.623Z,91.49
2023-12-05T03:36:48.429Z,91.39
2023-12-05T03:39:16.672Z,91.70
2023-12-05T03:41:45.999Z,91.53
2023-12-05T03:44:14.371Z,91.67
2023-12-05T03:46:42.645Z,91.77
2023-12-05T03:49:10.932Z,92.10
2023-12-05T03:51:38.917Z,92.00
2023-12-05T03:54:07.443Z,91.90
2023-12-05T03:56:35.641Z,91.80
2023-12-05T03:59:06.199Z,91.55
2023-12-05T04:01:34.196Z,91.49
2023-12-05T04:04:02.568Z,91.55
2023-12-05T04:06:30.733Z,91.44
2023-12-05T04:08:58.909Z,91.59
2023-12-05T04:11:32.200Z,91.61
2023-12-05T04:14:01.364Z,91.66
2023-12-05T04:16:29.737Z,91.58
2023-12-05T04:18:58.198Z,91.74
2023-12-05T04:21:27.949Z,91.46
2023-12-05T04:23:56.251Z,91.22
2023-12-05T04:28:53.382Z,91.10
2023-12-05T04:31:21.609Z,90.99
2023-12-05T04:33:49.718Z,91.18
2023-12-05T04:36:17.840Z,91.02
2023-12-05T04:38:45.691Z,91.16
2023-12-05T04:41:14.262Z,91.48
2023-12-05T04:43:42.439Z,91.74
2023-12-05T04:46:12.247Z,91.94
2023-12-05T04:48:40.658Z,92.06
2023-12-05T04:51:08.927Z,92.19
2023-12-05T04:53:37.017Z,92.12
2023-12-05T04:56:05.573Z,92.07
2023-12-05T04:58:34.893Z,92.01
2023-12-05T05:01:02.922Z,92.05
2023-12-05T05:03:31.282Z,92.11
2023-12-05T05:05:59.482Z,92.08
2023-12-05T05:08:26.483Z,91.89
2023-12-05T05:10:54.918Z,91.98
2023-12-05T05:13:22.773Z,91.91
2023-12-05T05:15:51.050Z,91.62
2023-12-05T05:18:21.553Z,91.61
2023-12-05T05:20:49.771Z,91.72
2023-12-05T05:23:18.132Z,91.54
2023-12-05T05:25:48.968Z,91.52
2023-12-05T05:28:17.533Z,91.53
2023-12-05T05:30:45.821Z,91.64
2023-12-05T05:33:14.645Z,91.67
2023-12-05T05:35:43.252Z,91.57
2023-12-05T05:38:10.851Z,91.36
2023-12-05T05:40:41.269Z,91.22
2023-12-05T05:43:10.255Z,91.09
2023-12-05T05:45:41.571Z,91.17
2023-12-05T05:48:12.205Z,91.22
2023-12-05T05:50:44.562Z,90.92
2023-12-05T05:53:15.364Z,91.10
2023-12-05T05:55:43.675Z,91.01
2023-12-05T05:58:12.644Z,90.88
2023-12-05T06:00:41.279Z,90.60
2023-12-05T06:03:10.373Z,90.88
2023-12-05T06:05:38.486Z,91.00
2023-12-05T06:08:06.393Z,91.12
2023-12-05T06:10:34.430Z,90.93
2023-12-05T06:13:02.541Z,90.88
2023-12-05T06:15:30.383Z,90.81
2023-12-05T06:17:59.215Z,90.88
2023-12-05T06:20:27.397Z,90.88
2023-12-05T06:22:55.301Z,90.66
2023-12-05T06:25:23.868Z,90.65
2023-12-05T06:27:52.339Z,90.61
2023-12-05T06:30:25.031Z,90.41
2023-12-05T06:32:56.049Z,90.47
2023-12-05T06:35:24.213Z,90.61
2023-12-05T06:37:55.221Z,90.64
2023-12-05T06:40:24.435Z,90.49
2023-12-05T06:42:52.568Z,90.53
2023-12-05T06:45:21.044Z,90.41
2023-12-05T06:47:49.519Z,90.59
2023-12-05T06:50:17.898Z,90.60
2023-12-05T06:52:46.004Z,90.57
2023-12-05T06:55:14.250Z,90.69
2023-12-05T06:57:42.130Z,90.48
2023-12-05T07:00:10.676Z,90.43
2023-12-05T07:02:38.733Z,90.36
2023-12-05T07:05:07.558Z,90.37
2023-12-05T07:07:36.297Z,90.34
2023-12-05T07:10:07.943Z,90.31
2023-12-05T07:12:36.831Z,90.55
2023-12-05T07:15:05.611Z,90.48
2023-12-05T07:17:33.664Z,90.47
2023-12-05T07:20:01.817Z,90.30
2023-12-05T07:22:29.876Z,90.28
2023-12-05T07:25:01.048Z,90.01
2023-12-05T07:27:31.608Z,89.65
2023-12-05T07:29:59.579Z,89.46
2023-12-05T07:32:27.603Z,89.47
2023-12-05T07:34:55.737Z,89.34
2023-12-05T07:37:22.951Z,89.34
2023-12-05T07:39:51.365Z,89.41
2023-12-05T07:42:19.662Z,89.55
2023-12-05T07:44:47.483Z,89.65
2023-12-05T07:47:15.872Z,89.54
2023-12-05T07:49:47.356Z,89.49
2023-12-05T07:52:15.861Z,89.21
2023-12-05T07:54:42.963Z,89.01
2023-12-05T07:57:11.265Z,88.39
2023-12-05T07:59:39.664Z,87.79
2023-12-05T08:02:08.542Z,87.42
2023-12-05T08:04:38.001Z,86.67
2023-12-05T08:07:06.896Z,86.32
2023-12-05T08:09:37.694Z,86.07
2023-12-05T08:12:06.206Z,86.32
2023-12-05T08:14:33.506Z,85.90
2023-12-05T08:17:01.714Z,85.52
2023-12-05T08:19:28.575Z,85.13
2023-12-05T08:21:56.992Z,85.03
2023-12-05T08:24:25.667Z,84.99
2023-12-05T08:26:53.686Z,84.89
2023-12-05T08:29:23.083Z,84.62
2023-12-05T08:31:53.445Z,84.56
2023-12-05T08:34:20.525Z,84.44
2023-12-05T08:36:48.726Z,84.21
2023-12-05T08:39:16.660Z,83.75
2023-12-05T08:41:44.539Z,83.19
2023-12-05T08:44:12.765Z,83.27
2023-12-05T08:46:41.038Z,82.99
2023-12-05T08:49:09.157Z,83.14
2023-12-05T08:51:37.453Z,82.99
2023-12-05T08:54:05.366Z,82.88
2023-12-05T08:56:33.959Z,83.02
2023-12-05T08:59:00.896Z,83.11
2023-12-05T09:01:29.886Z,82.76
2023-12-05T09:03:58.131Z,82.58
2023-12-05T09:06:26.604Z,82.56
2023-12-05T09:08:56.518Z,82.42
2023-12-05T09:11:25.031Z,82.24
2023-12-05T09:13:53.312Z,82.38
2023-12-05T09:16:21.874Z,82.10
2023-12-05T09:18:52.259Z,82.29
2023-12-05T09:21:20.375Z,82.36
2023-12-05T09:23:49.197Z,82.63
2023-12-05T09:26:17.427Z,82.48
2023-12-05T09:28:46.051Z,82.56
2023-12-05T09:31:14.288Z,82.74
2023-12-05T09:33:42.619Z,82.69
2023-12-05T09:36:12.303Z,82.52
2023-12-05T09:38:40.595Z,82.55
2023-12-05T09:41:09.263Z,82.39
2023-12-05T09:43:41.414Z,82.17
2023-12-05T09:46:11.066Z,82.26
2023-12-05T09:48:49.392Z,81.89
2023-12-05T09:51:20.362Z,81.45
2023-12-05T09:53:50.013Z,81.50
2023-12-05T09:56:19.772Z,81.57
2023-12-05T09:58:48.946Z,81.61
2023-12-05T10:01:18.821Z,81.74
2023-12-05T10:03:55.122Z,81.74
2023-12-05T10:06:28.295Z,81.87
2023-12-05T10:08:58.337Z,81.85
2023-12-05T10:11:29.198Z,81.94
2023-12-05T10:13:59.035Z,81.76
2023-12-05T10:16:28.917Z,81.42
2023-12-05T10:18:58.678Z,81.28
2023-12-05T10:21:29.893Z,80.94
2023-12-05T10:23:58.699Z,80.63
2023-12-05T10:26:27.143Z,80.43
2023-12-05T10:28:57.110Z,80.25
2023-12-05T10:31:25.655Z,80.12
2023-12-05T10:34:16.928Z,80.08
2023-12-05T10:37:06.912Z,80.26
2023-12-05T10:39:37.722Z,80.12
2023-12-05T10:42:06.028Z,79.30
2023-12-05T10:44:43.220Z,78.83
2023-12-05T10:47:17.124Z,78.39
2023-12-05T10:49:46.831Z,78.21
2023-12-05T10:52:15.896Z,78.52
2023-12-05T10:54:45.945Z,78.39
2023-12-05T10:57:14.151Z,78.13
2023-12-05T10:59:42.327Z,78.18
2023-12-05T11:02:16.695Z,77.97
2023-12-05T11:04:45.011Z,77.85
2023-12-05T11:07:13.582Z,77.55
2023-12-05T11:09:45.145Z,78.15
2023-12-05T11:12:17.491Z,78.33
2023-12-05T11:14:49.559Z,78.18
2023-12-05T11:17:23.680Z,78.57
2023-12-05T11:20:33.184Z,78.77
2023-12-05T11:23:25.115Z,78.41
2023-12-05T11:26:10.437Z,78.02
2023-12-05T11:29:24.957Z,77.66
2023-12-05T11:32:29.409Z,76.61
2023-12-05T11:35:41.981Z,75.70
2023-12-05T11:38:16.908Z,75.60
2023-12-05T11:41:13.997Z,75.45
2023-12-05T11:43:45.837Z,75.09
2023-12-05T11:46:18.691Z,74.63
2023-12-05T11:48:47.040Z,74.51
2023-12-05T11:51:16.921Z,74.18
2023-12-05T11:53:45.025Z,74.60
2023-12-05T11:56:22.597Z,74.68
2023-12-05T11:58:50.782Z,74.34
2023-12-05T12:01:19.427Z,74.57
2023-12-05T12:03:57.533Z,74.72
2023-12-05T12:06:26.713Z,75.25
2023-12-05T12:08:56.552Z,75.12
2023-12-05T12:11:25.387Z,74.40
2023-12-05T12:13:52.827Z,74.35
2023-12-05T12:16:22.233Z,74.31
2023-12-05T12:18:54.319Z,75.07
2023-12-05T12:21:32.116Z,75.04
2023-12-05T12:24:00.665Z,74.94
2023-12-05T12:26:33.607Z,74.59
2023-12-05T12:29:11.431Z,74.21
2023-12-05T12:31:39.590Z,74.60
2023-12-05T12:34:09.688Z,74.84
2023-12-05T12:36:40.872Z,75.32
2023-12-05T12:39:11.174Z,75.71
2023-12-05T12:41:40.271Z,75.85
2023-12-05T12:44:10.382Z,75.88
2023-12-05T12:46:38.630Z,75.82
2023-12-05T12:49:08.135Z,76.16
2023-12-05T12:51:40.094Z,75.46
2023-12-05T12:54:10.468Z,75.29
2023-12-05T12:56:41.737Z,75.72
2023-12-05T12:59:12.203Z,75.65
2023-12-05T13:01:41.766Z,75.79
2023-12-05T13:04:15.533Z,76.30
2023-12-05T13:06:48.377Z,76.64
2023-12-05T13:09:20.932Z,76.86
2023-12-05T13:11:52.396Z,76.76
2023-12-05T13:14:23.238Z,76.80
2023-12-05T13:16:51.729Z,76.71
2023-12-05T13:19:37.537Z,76.52
2023-12-05T13:22:05.653Z,77.11
2023-12-05T13:24:33.977Z,77.13
2023-12-05T13:27:04.499Z,76.69
2023-12-05T13:29:32.895Z,77.02
2023-12-05T13:32:01.064Z,77.01
2023-12-05T13:34:28.116Z,77.40
2023-12-05T13:36:56.485Z,77.37
2023-12-05T13:39:27.132Z,77.78
2023-12-05T13:41:55.262Z,77.88
2023-12-05T13:44:24.657Z,77.92
2023-12-05T13:46:56.451Z,78.30
2023-12-05T13:49:25.516Z,78.73
2023-12-05T13:51:55.326Z,78.95
2023-12-05T13:54:24.025Z,79.36
2023-12-05T13:56:52.699Z,79.35
2023-12-05T13:59:20.967Z,79.26
2023-12-05T14:01:49.319Z,79.33
2023-12-05T14:04:19.195Z,79.61
2023-12-05T14:06:47.833Z,79.62
2023-12-05T14:09:16.776Z,79.53
2023-12-05T14:11:45.466Z,79.37
2023-12-05T14:14:15.733Z,79.14
2023-12-05T14:16:44.055Z,78.85
2023-12-05T14:19:12.278Z,79.00
2023-12-05T14:21:39.898Z,79.03
2023-12-05T14:24:08.102Z,79.12
2023-12-05T14:26:38.498Z,79.49
2023-12-05T14:29:06.819Z,79.96
2023-12-05T14:31:35.393Z,80.63
2023-12-05T14:34:09.163Z,81.28
2023-12-05T14:36:37.058Z,81.76
2023-12-05T14:39:10.794Z,82.19
2023-12-05T14:41:39.881Z,82.73
2023-12-05T14:44:08.207Z,83.25
2023-12-05T14:46:37.785Z,83.53
2023-12-05T14:49:08.799Z,84.02
2023-12-05T14:51:48.272Z,84.79
2023-12-05T14:54:17.001Z,85.35
2023-12-05T14:56:47.305Z,86.12
2023-12-05T14:59:23.461Z,86.55
2023-12-05T15:41:35.199Z,88.93
2023-12-05T15:44:05.896Z,89.24
2023-12-05T15:46:37.680Z,89.43
2023-12-05T15:49:05.439Z,89.70
2023-12-05T15:51:40.159Z,89.64
2023-12-05T15:54:07.566Z,89.71
2023-12-05T15:56:37.843Z,89.95
2023-12-05T15:59:05.741Z,90.06
2023-12-05T16:01:34.512Z,90.09
2023-12-05T16:04:04.666Z,90.18
2023-12-05T16:06:32.552Z,90.18
2023-12-05T16:09:01.928Z,90.55
2023-12-05T16:11:40.540Z,90.30
2023-12-05T16:14:07.566Z,90.32
2023-12-05T16:16:34.462Z,90.26
2023-12-05T16:19:01.453Z,90.49
2023-12-05T16:21:28.538Z,90.47
2023-12-05T16:23:55.462Z,90.32
2023-12-05T16:26:22.351Z,90.30
2023-12-05T16:28:50.092Z,90.57
2023-12-05T16:31:17.617Z,90.53
2023-12-05T16:33:44.669Z,90.70
2023-12-05T16:36:11.717Z,90.34
2023-12-05T16:38:38.675Z,90.25
2023-12-05T16:41:05.831Z,90.50
2023-12-05T16:43:33.381Z,90.34
2023-12-05T16:46:00.655Z,90.33
2023-12-05T16:48:27.745Z,90.44
2023-12-05T16:50:56.064Z,90.26
2023-12-05T16:53:22.923Z,90.46
2023-12-05T16:55:49.863Z,90.38
2023-12-05T16:58:20.270Z,90.31
2023-12-05T17:00:47.997Z,90.36
2023-12-05T17:03:15.898Z,90.31
2023-12-05T17:05:43.070Z,90.24
2023-12-05T17:08:12.986Z,90.15
2023-12-05T17:10:43.119Z,90.18
2023-12-05T17:13:15.548Z,90.01
2023-12-05T17:15:43.537Z,90.04
2023-12-05T17:18:14.271Z,90.15
2023-12-05T17:20:42.960Z,89.93
2023-12-05T17:25:39.398Z,90.15
2023-12-05T17:28:07.661Z,90.11
2023-12-05T17:30:36.951Z,90.41
2023-12-05T17:35:54.804Z,89.97
2023-12-05T17:38:24.167Z,89.79
2023-12-05T17:40:52.211Z,89.87
2023-12-05T17:43:21.113Z,89.84
2023-12-05T17:45:49.722Z,89.80
2023-12-05T17:48:18.186Z,89.63
2023-12-05T17:50:52.160Z,89.50
2023-12-05T17:53:23.565Z,89.31
2023-12-05T17:55:57.702Z,89.08
2023-12-05T17:58:24.670Z,89.10
2023-12-05T18:00:53.341Z,89.06
2023-12-05T18:03:24.374Z,88.85
2023-12-05T18:05:53.300Z,88.83
2023-12-05T18:08:29.337Z,88.89
2023-12-05T18:10:59.282Z,89.02
2023-12-05T18:13:27.761Z,88.86
2023-12-05T18:15:55.837Z,88.89
2023-12-05T18:18:24.768Z,88.80
2023-12-05T18:20:52.926Z,88.80
2023-12-05T18:23:20.867Z,88.81
2023-12-05T18:25:49.246Z,88.87
2023-12-05T18:28:17.794Z,88.78
2023-12-05T18:30:45.879Z,88.90
2023-12-05T18:33:14.374Z,88.54
2023-12-05T18:35:43.463Z,88.51
2023-12-05T18:38:11.125Z,88.63
2023-12-05T18:40:39.121Z,88.63
2023-12-05T18:43:08.909Z,88.65
2023-12-05T18:45:37.453Z,88.65
2023-12-05T18:48:07.259Z,88.65
2023-12-05T18:50:38.712Z,88.31
2023-12-05T18:53:06.721Z,88.34
2023-12-05T18:55:34.903Z,88.28
2023-12-05T18:58:07.739Z,88.14
2023-12-05T19:00:37.026Z,88.09
2023-12-05T19:03:08.761Z,87.95
2023-12-05T19:05:37.633Z,87.71
2023-12-05T19:08:07.265Z,87.87
2023-12-05T19:10:35.565Z,87.75
2023-12-05T19:13:03.893Z,87.58
2023-12-05T19:15:32.147Z,87.56
2023-12-05T19:18:07.479Z,87.88
2023-12-05T19:20:38.002Z,88.02
2023-12-05T19:23:08.139Z,87.93
2023-12-05T19:25:36.297Z,87.83
2023-12-05T19:28:05.947Z,87.56
2023-12-05T19:30:34.327Z,87.42
2023-12-05T19:33:04.114Z,87.43
2023-12-05T19:35:34.913Z,87.37
2023-12-05T19:38:05.757Z,87.20
2023-12-05T19:40:35.366Z,87.11
2023-12-05T19:43:09.405Z,87.07
2023-12-05T19:45:39.494Z,87.09
2023-12-05T19:48:13.429Z,87.31
2023-12-05T19:50:42.224Z,87.02
2023-12-05T19:53:10.259Z,86.77
2023-12-05T19:55:44.046Z,86.73
2023-12-05T19:58:20.172Z,86.71
2023-12-05T20:00:49.524Z,86.71
2023-12-05T20:03:23.138Z,86.52
2023-12-05T20:05:51.272Z,86.40
2023-12-05T20:08:18.295Z,86.40
2023-12-05T20:10:47.004Z,86.54
2023-12-05T20:13:17.659Z,86.57
2023-12-05T20:15:45.689Z,86.68
2023-12-05T20:18:13.654Z,86.75
2023-12-05T20:20:42.930Z,86.50
2023-12-05T20:23:11.184Z,86.65
2023-12-05T20:25:39.135Z,86.46
2023-12-05T20:28:08.332Z,86.43
2023-12-05T20:30:39.249Z,86.19
2023-12-05T20:33:07.696Z,85.85
2023-12-05T20:35:35.834Z,85.48
2023-12-05T20:38:04.524Z,85.65
2023-12-05T20:40:34.639Z,85.47
2023-12-05T20:43:02.652Z,85.34
2023-12-05T20:45:31.109Z,85.47
2023-12-05T20:47:59.501Z,85.56
2023-12-05T20:50:31.387Z,85.68
2023-12-05T20:53:04.002Z,85.43
2023-12-05T20:55:35.192Z,85.36
2023-12-05T20:58:03.474Z,85.32
2023-12-05T21:00:30.429Z,85.43
2023-12-05T21:02:59.888Z,85.53
2023-12-05T21:05:27.841Z,85.52
2023-12-05T21:07:56.144Z,85.65
2023-12-05T21:10:24.624Z,85.50
2023-12-05T21:12:53.065Z,85.49
2023-12-05T21:15:21.109Z,85.72
2023-12-05T21:17:51.590Z,85.63
2023-12-05T21:20:23.187Z,85.75
2023-12-05T21:22:54.369Z,85.86
2023-12-05T21:25:22.430Z,85.75
2023-12-05T21:27:51.672Z,85.46
2023-12-05T21:30:20.241Z,85.41
2023-12-05T21:32:48.287Z,85.47
2023-12-05T21:35:18.333Z,85.73
2023-12-05T21:37:50.101Z,85.67
2023-12-05T21:40:18.457Z,85.61
2023-12-05T21:42:49.323Z,85.43
2023-12-05T21:45:18.697Z,85.62
2023-12-05T21:47:50.273Z,85.32
2023-12-05T21:50:17.415Z,85.45
2023-12-05T21:52:44.345Z,85.27
2023-12-05T21:55:12.531Z,85.21
2023-12-05T21:57:39.390Z,85.41
2023-12-05T22:00:08.641Z,85.43
2023-12-05T22:02:35.528Z,85.60
2023-12-05T22:05:04.585Z,85.67
2023-12-05T22:07:33.434Z,85.95
2023-12-05T22:10:01.807Z,85.95
2023-12-05T22:12:28.656Z,85.83
2023-12-05T22:14:58.520Z,85.92
2023-12-05T22:17:26.600Z,85.69
2023-12-05T22:19:56.035Z,85.85
2023-12-05T22:22:25.016Z,85.80
2023-12-05T22:24:55.374Z,85.78
2023-12-05T22:27:24.654Z,85.66
2023-12-05T22:29:53.228Z,85.56
2023-12-05T22:32:22.470Z,85.60
2023-12-05T22:34:53.038Z,85.73
2023-12-05T22:37:23.643Z,85.96
2023-12-05T22:39:55.084Z,85.92
2023-12-05T22:42:24.153Z,86.07
2023-12-05T22:44:54.442Z,85.82
2023-12-05T22:47:22.891Z,86.00
2023-12-05T22:49:51.359Z,86.21
2023-12-05T22:52:19.572Z,86.16
2023-12-05T22:54:47.748Z,86.00
2023-12-05T22:57:15.941Z,86.15
2023-12-05T22:59:45.266Z,86.21
2023-12-05T23:02:20.850Z,86.01
2023-12-05T23:04:49.013Z,86.15
2023-12-05T23:07:19.262Z,86.06
2023-12-05T23:09:48.753Z,86.38
2023-12-05T23:12:16.615Z,86.49
2023-12-05T23:14:48.575Z,86.38
2023-12-05T23:17:16.483Z,86.44
2023-12-05T23:19:44.386Z,86.45
2023-12-05T23:22:12.968Z,86.57
2023-12-05T23:24:41.543Z,86.70
2023-12-05T23:27:09.672Z,86.66
2023-12-05T23:29:37.747Z,86.73
2023-12-05T23:32:06.833Z,86.91
2023-12-05T23:34:35.237Z,87.00
2023-12-05T23:37:06.268Z,87.31
2023-12-05T23:39:34.900Z,87.45
2023-12-05T23:42:05.139Z,87.52
2023-12-05T23:44:35.854Z,87.46
2023-12-05T23:47:11.691Z,87.13
2023-12-05T23:49:39.430Z,87.32
2023-12-05T23:52:08.091Z,87.44
2023-12-05T23:54:37.362Z,87.07
2023-12-05T23:57:06.866Z,87.25
2023-12-05T23:59:44.971Z,87.46
